createdAt,value
2018-03-31T00:02:13.596Z,0
2018-03-31T00:07:13.690Z,0
2018-03-31T00:12:13.494Z,0
2018-03-31T00:17:13.783Z,0
2018-03-31T00:22:13.867Z,0
2018-03-31T00:27:13.974Z,0
2018-03-31T00:32:13.085Z,0
2018-03-31T00:37:13.544Z,0
2018-03-31T00:42:13.783Z,0
2018-03-31T00:47:13.887Z,0
2018-03-31T00:52:13.098Z,0
2018-03-31T00:57:13.045Z,0
2018-03-31T01:02:13.003Z,0
2018-03-31T01:07:13.240Z,0
2018-03-31T01:12:13.458Z,0
2018-03-31T01:17:13.686Z,0
2018-03-31T01:22:13.733Z,0
2018-03-31T01:27:13.816Z,0
2018-03-31T01:32:14.023Z,0
2018-03-31T01:37:14.071Z,0
2018-03-31T01:42:13.082Z,0
2018-03-31T01:47:13.130Z,0
2018-03-31T01:52:13.238Z,0
2018-03-31T01:57:13.321Z,0
2018-03-31T02:02:13.499Z,0
2018-03-31T02:07:13.640Z,0
2018-03-31T02:12:13.898Z,0
2018-03-31T02:17:13.451Z,0
2018-03-31T02:22:13.628Z,0
2018-03-31T02:27:13.736Z,0
2018-03-31T02:32:13.872Z,0
2018-03-31T02:37:14.027Z,0
2018-03-31T02:42:14.060Z,0
2018-03-31T02:47:13.160Z,0
2018-03-31T02:52:13.195Z,0
2018-03-31T02:57:13.174Z,0
2018-03-31T03:02:13.172Z,0
2018-03-31T03:07:13.706Z,0
2018-03-31T03:12:13.911Z,0
2018-03-31T03:17:14.035Z,0
2018-03-31T03:22:14.112Z,0
2018-03-31T03:27:13.292Z,0
2018-03-31T03:32:13.422Z,0
2018-03-31T03:37:13.545Z,0
2018-03-31T03:42:13.654Z,0
2018-03-31T03:47:13.865Z,0
2018-03-31T03:52:14.011Z,0
2018-03-31T03:57:14.115Z,0
2018-03-31T04:02:13.436Z,0
2018-03-31T04:07:13.587Z,0
2018-03-31T04:12:13.602Z,0
2018-03-31T04:17:13.878Z,0
2018-03-31T04:22:14.242Z,0
2018-03-31T04:27:13.304Z,0
2018-03-31T04:32:13.571Z,0
2018-03-31T04:37:13.320Z,0
2018-03-31T04:42:13.538Z,0
2018-03-31T04:47:13.709Z,0
2018-03-31T04:52:13.913Z,0
2018-03-31T04:57:14.091Z,0
2018-03-31T05:02:14.298Z,0
2018-03-31T05:07:13.422Z,0
2018-03-31T05:12:13.732Z,0
2018-03-31T05:17:14.086Z,3.8
2018-03-31T05:22:14.280Z,3.8
2018-03-31T05:27:13.476Z,8
2018-03-31T05:32:13.512Z,8
2018-03-31T05:37:13.833Z,15
2018-03-31T05:42:13.527Z,15
2018-03-31T05:47:13.741Z,19
2018-03-31T05:52:13.921Z,19
2018-03-31T05:57:14.060Z,23
2018-03-31T06:02:13.698Z,23
2018-03-31T06:07:14.464Z,27.3
2018-03-31T06:12:13.708Z,27.3
2018-03-31T06:17:13.975Z,34
2018-03-31T06:22:13.949Z,34
2018-03-31T06:27:14.158Z,32
2018-03-31T06:32:14.198Z,32
2018-03-31T06:37:14.323Z,37.7
2018-03-31T06:42:13.406Z,37.7
2018-03-31T06:47:13.662Z,42
2018-03-31T06:52:13.765Z,42
2018-03-31T06:57:13.795Z,46
2018-03-31T07:02:14.013Z,46
2018-03-31T07:07:14.139Z,45
2018-03-31T07:12:14.444Z,45
2018-03-31T07:17:13.553Z,44
2018-03-31T07:22:13.916Z,44
2018-03-31T07:27:14.120Z,68
2018-03-31T07:32:14.287Z,68
2018-03-31T07:37:13.498Z,65.5
2018-03-31T07:42:13.648Z,65.5
2018-03-31T07:47:13.810Z,60
2018-03-31T07:52:13.978Z,60
2018-03-31T07:57:14.188Z,65
2018-03-31T08:02:14.279Z,65
2018-03-31T08:07:13.971Z,69.8
2018-03-31T08:12:14.020Z,69.8
2018-03-31T08:17:14.096Z,70
2018-03-31T08:22:14.238Z,70
2018-03-31T08:27:14.306Z,73
2018-03-31T08:32:14.370Z,73
2018-03-31T08:37:14.380Z,71
2018-03-31T08:42:13.496Z,71
2018-03-31T08:47:13.784Z,34
2018-03-31T08:52:13.948Z,34
2018-03-31T08:57:14.067Z,40.2
2018-03-31T09:02:14.177Z,40.2
2018-03-31T09:07:13.843Z,55.2
2018-03-31T09:12:14.014Z,55.2
2018-03-31T09:17:13.672Z,57.5
2018-03-31T09:22:13.817Z,57.5
2018-03-31T09:27:13.917Z,57
2018-03-31T09:32:13.701Z,57
2018-03-31T09:37:13.740Z,77.3
2018-03-31T09:42:13.718Z,77.3
2018-03-31T09:47:14.070Z,51.7
2018-03-31T09:52:14.192Z,51.7
2018-03-31T09:57:14.343Z,42.5
2018-03-31T10:02:14.680Z,42.5
2018-03-31T10:07:14.464Z,67.3
2018-03-31T10:12:14.546Z,67.3
2018-03-31T10:17:13.708Z,183.3
2018-03-31T10:22:13.732Z,183.3
2018-03-31T10:27:13.702Z,167.7
2018-03-31T10:32:13.865Z,167.7
2018-03-31T10:37:14.028Z,158
2018-03-31T10:42:14.138Z,158
2018-03-31T10:47:14.293Z,167
2018-03-31T10:52:14.401Z,167
2018-03-31T10:57:14.552Z,162
2018-03-31T11:02:14.787Z,162
2018-03-31T11:07:14.321Z,157
2018-03-31T11:12:14.531Z,157
2018-03-31T11:17:14.577Z,140.3
2018-03-31T11:22:14.652Z,140.3
2018-03-31T11:27:14.716Z,123
2018-03-31T11:32:13.826Z,123
2018-03-31T11:37:13.918Z,116.7
2018-03-31T11:42:14.014Z,116.7
2018-03-31T11:47:14.149Z,136.3
2018-03-31T11:52:14.258Z,136.3
2018-03-31T11:57:14.353Z,107.8
2018-03-31T12:02:14.797Z,107.8
2018-03-31T12:07:14.594Z,91
2018-03-31T12:12:13.794Z,91
2018-03-31T12:17:13.964Z,68.8
2018-03-31T12:22:14.088Z,68.8
2018-03-31T12:27:14.155Z,69.7
2018-03-31T12:32:14.313Z,69.7
2018-03-31T12:37:14.393Z,67.7
2018-03-31T12:42:14.703Z,67.7
2018-03-31T12:47:14.007Z,50.3
2018-03-31T12:52:14.335Z,50.3
2018-03-31T12:57:14.631Z,48.5
2018-03-31T13:02:14.848Z,48.5
2018-03-31T13:07:14.260Z,47
2018-03-31T13:12:13.928Z,47
2018-03-31T13:17:14.173Z,46
2018-03-31T13:22:14.421Z,46
2018-03-31T13:27:14.567Z,42
2018-03-31T13:32:14.734Z,42
2018-03-31T13:37:13.857Z,37.5
2018-03-31T13:42:14.068Z,37.5
2018-03-31T13:47:14.439Z,35
2018-03-31T13:52:13.998Z,35
2018-03-31T13:57:14.161Z,32.3
2018-03-31T14:02:14.198Z,32.3
2018-03-31T14:07:14.012Z,28
2018-03-31T14:12:13.930Z,28
2018-03-31T14:17:14.111Z,28
2018-03-31T14:22:14.209Z,28
2018-03-31T14:27:14.272Z,25
2018-03-31T14:32:14.454Z,25
2018-03-31T14:37:14.612Z,18
2018-03-31T14:42:14.914Z,18
2018-03-31T14:47:14.211Z,16
2018-03-31T14:52:14.432Z,16
2018-03-31T14:57:14.502Z,12
2018-03-31T15:02:14.759Z,12
2018-03-31T15:07:14.099Z,11
2018-03-31T15:12:14.734Z,11
2018-03-31T15:17:14.059Z,9
2018-03-31T15:22:14.196Z,9
2018-03-31T15:27:14.361Z,9
2018-03-31T15:32:14.576Z,9
2018-03-31T15:37:14.613Z,9
2018-03-31T15:42:14.651Z,9
2018-03-31T15:47:15.017Z,10
2018-03-31T15:52:14.168Z,10
2018-03-31T15:57:14.306Z,9.5
2018-03-31T16:02:14.529Z,9.5
2018-03-31T16:07:14.107Z,9
2018-03-31T16:12:14.276Z,9
2018-03-31T16:17:14.467Z,8.3
2018-03-31T16:22:14.573Z,8.3
2018-03-31T16:27:14.613Z,6.3
2018-03-31T16:32:14.781Z,6.3
2018-03-31T16:37:14.929Z,6
2018-03-31T16:42:15.027Z,6
2018-03-31T16:47:14.216Z,5
2018-03-31T16:52:14.375Z,5
2018-03-31T16:57:14.499Z,1.2
2018-03-31T17:02:14.206Z,1.2
2018-03-31T17:07:14.318Z,0
2018-03-31T17:12:14.679Z,0
2018-03-31T17:17:14.714Z,0
2018-03-31T17:22:14.731Z,0
2018-03-31T17:27:14.846Z,0
2018-03-31T17:32:15.038Z,0
2018-03-31T17:37:14.242Z,0
2018-03-31T17:42:14.561Z,0
2018-03-31T17:47:14.716Z,0
2018-03-31T17:52:14.690Z,0
2018-03-31T17:57:14.835Z,0
2018-03-31T18:02:15.103Z,0
2018-03-31T18:07:14.363Z,0
2018-03-31T18:12:14.602Z,0
2018-03-31T18:17:14.677Z,0
2018-03-31T18:22:14.758Z,0
2018-03-31T18:27:14.876Z,0
2018-03-31T18:32:15.086Z,0
2018-03-31T18:37:15.130Z,0
2018-03-31T18:42:14.349Z,0
2018-03-31T18:47:14.445Z,0
2018-03-31T18:52:14.624Z,0
2018-03-31T18:57:14.742Z,0
2018-03-31T19:02:14.909Z,0
2018-03-31T19:07:15.095Z,0
2018-03-31T19:12:14.972Z,0
2018-03-31T19:17:15.069Z,0
2018-03-31T19:22:15.209Z,0
2018-03-31T19:27:14.327Z,0
2018-03-31T19:32:14.417Z,0
2018-03-31T19:37:14.574Z,0
2018-03-31T19:42:14.621Z,0
2018-03-31T19:47:14.973Z,0
2018-03-31T19:52:15.154Z,0
2018-03-31T19:57:15.248Z,0
2018-03-31T20:02:14.527Z,0
2018-03-31T20:07:14.751Z,0
2018-03-31T20:12:14.256Z,0
2018-03-31T20:17:15.334Z,0
2018-03-31T20:22:14.507Z,0
2018-03-31T20:27:14.704Z,0
2018-03-31T20:32:14.753Z,0
2018-03-31T20:37:14.897Z,0
2018-03-31T20:42:14.877Z,0
2018-03-31T20:47:14.983Z,0
2018-03-31T20:52:15.061Z,0
2018-03-31T20:57:15.070Z,0
2018-03-31T21:02:15.456Z,0
2018-03-31T21:07:14.596Z,0
2018-03-31T21:12:14.508Z,0
2018-03-31T21:17:14.657Z,0
2018-03-31T21:22:14.854Z,0
2018-03-31T21:27:14.888Z,0
2018-03-31T21:32:15.042Z,0
2018-03-31T21:37:15.035Z,0
2018-03-31T21:42:15.038Z,0
2018-03-31T21:47:15.116Z,0
2018-03-31T21:52:15.115Z,0
2018-03-31T21:57:15.205Z,0
2018-03-31T22:02:15.540Z,0
2018-03-31T22:07:15.146Z,0
2018-03-31T22:12:15.476Z,0
2018-03-31T22:17:14.516Z,0
2018-03-31T22:22:14.707Z,0
2018-03-31T22:27:14.827Z,0
2018-03-31T22:32:14.819Z,0
2018-03-31T22:37:15.003Z,0
2018-03-31T22:42:15.042Z,0
2018-03-31T22:47:15.201Z,0
2018-03-31T22:52:15.319Z,0
2018-03-31T22:57:15.503Z,0
2018-03-31T23:02:14.632Z,0
2018-03-31T23:07:14.978Z,0
2018-03-31T23:12:15.176Z,0
2018-03-31T23:17:15.484Z,0
2018-03-31T23:22:14.686Z,0
2018-03-31T23:27:14.771Z,0
2018-03-31T23:32:14.907Z,0
2018-03-31T23:37:14.962Z,0
2018-03-31T23:42:15.232Z,0
2018-03-31T23:47:15.270Z,0
2018-03-31T23:52:15.561Z,0
2018-03-31T23:57:14.636Z,0
